sensor_id;sensor_type;location;lat;lon;timestamp;pressure;altitude;pressure_sealevel;temperature;humidity
59289;BME280;45056;47.602;9.886;2023-12-20T00:00:41;93053.91;;;5.76;56.59
59289;BME280;45056;47.602;9.886;2023-12-20T00:03:09;93055.06;;;5.75;56.81
59289;BME280;45056;47.602;9.886;2023-12-20T00:05:37;93042.75;;;5.74;56.90
59289;BME280;45056;47.602;9.886;2023-12-20T00:08:09;93030.41;;;5.73;57.08
59289;BME280;45056;47.602;9.886;2023-12-20T00:10:37;93014.22;;;5.73;56.94
59289;BME280;45056;47.602;9.886;2023-12-20T00:13:05;93023.06;;;5.73;57.22
59289;BME280;45056;47.602;9.886;2023-12-20T00:15:34;93025.03;;;5.73;57.57
59289;BME280;45056;47.602;9.886;2023-12-20T00:18:02;93017.28;;;5.75;57.57
59289;BME280;45056;47.602;9.886;2023-12-20T00:20:31;93008.81;;;5.73;57.72
59289;BME280;45056;47.602;9.886;2023-12-20T00:22:59;93018.84;;;5.72;57.73
59289;BME280;45056;47.602;9.886;2023-12-20T00:25:29;93026.19;;;5.72;57.51
59289;BME280;45056;47.602;9.886;2023-12-20T00:27:57;93014.63;;;5.71;57.37
59289;BME280;45056;47.602;9.886;2023-12-20T00:30:25;93018.84;;;5.72;57.22
59289;BME280;45056;47.602;9.886;2023-12-20T00:32:53;93017.31;;;5.71;57.28
59289;BME280;45056;47.602;9.886;2023-12-20T00:35:21;93016.91;;;5.73;57.09
59289;BME280;45056;47.602;9.886;2023-12-20T00:37:49;93018.44;;;5.74;56.77
59289;BME280;45056;47.602;9.886;2023-12-20T00:40:17;93020.38;;;5.73;56.72
59289;BME280;45056;47.602;9.886;2023-12-20T00:42:48;93021.53;;;5.72;56.52
59289;BME280;45056;47.602;9.886;2023-12-20T00:45:16;93018.09;;;5.72;56.64
59289;BME280;45056;47.602;9.886;2023-12-20T00:47:45;93025.03;;;5.73;56.75
59289;BME280;45056;47.602;9.886;2023-12-20T00:50:13;93025.03;;;5.73;56.72
59289;BME280;45056;47.602;9.886;2023-12-20T00:52:41;93030.06;;;5.71;56.97
59289;BME280;45056;47.602;9.886;2023-12-20T00:55:09;93027.41;;;5.67;57.00
59289;BME280;45056;47.602;9.886;2023-12-20T00:57:37;93029.00;;;5.65;57.10
59289;BME280;45056;47.602;9.886;2023-12-20T01:00:07;93021.69;;;5.61;57.17
59289;BME280;45056;47.602;9.886;2023-12-20T01:02:36;93014.41;;;5.58;57.38
59289;BME280;45056;47.602;9.886;2023-12-20T01:05:05;93013.66;;;5.58;57.21
59289;BME280;45056;47.602;9.886;2023-12-20T01:07:35;93013.25;;;5.59;57.16
59289;BME280;45056;47.602;9.886;2023-12-20T01:10:04;93012.88;;;5.57;57.26
59289;BME280;45056;47.602;9.886;2023-12-20T01:12:32;93006.75;;;5.57;57.32
59289;BME280;45056;47.602;9.886;2023-12-20T01:15:00;92998.28;;;5.55;57.24
59289;BME280;45056;47.602;9.886;2023-12-20T01:17:29;92995.97;;;5.53;57.57
59289;BME280;45056;47.602;9.886;2023-12-20T01:19:57;92996.81;;;5.50;57.69
59289;BME280;45056;47.602;9.886;2023-12-20T01:22:25;92989.13;;;5.48;57.63
59289;BME280;45056;47.602;9.886;2023-12-20T01:24:53;93003.38;;;5.49;57.69
59289;BME280;45056;47.602;9.886;2023-12-20T01:27:22;93001.44;;;5.49;57.39
59289;BME280;45056;47.602;9.886;2023-12-20T01:29:50;92994.09;;;5.50;56.93
59289;BME280;45056;47.602;9.886;2023-12-20T01:32:18;92988.66;;;5.54;56.66
59289;BME280;45056;47.602;9.886;2023-12-20T01:34:47;92981.66;;;5.56;56.45
59289;BME280;45056;47.602;9.886;2023-12-20T01:37:15;92992.81;;;5.58;56.38
59289;BME280;45056;47.602;9.886;2023-12-20T01:39:43;92998.19;;;5.62;56.27
59289;BME280;45056;47.602;9.886;2023-12-20T01:42:12;92995.44;;;5.66;56.00
59289;BME280;45056;47.602;9.886;2023-12-20T01:44:39;92997.31;;;5.69;55.73
59289;BME280;45056;47.602;9.886;2023-12-20T01:47:08;92989.22;;;5.69;55.54
59289;BME280;45056;47.602;9.886;2023-12-20T01:49:36;92993.78;;;5.72;55.26
59289;BME280;45056;47.602;9.886;2023-12-20T01:52:08;92989.94;;;5.73;54.78
59289;BME280;45056;47.602;9.886;2023-12-20T01:54:37;92971.03;;;5.73;54.24
59289;BME280;45056;47.602;9.886;2023-12-20T01:57:08;92966.72;;;5.75;53.85
59289;BME280;45056;47.602;9.886;2023-12-20T01:59:37;92974.03;;;5.78;53.39
59289;BME280;45056;47.602;9.886;2023-12-20T02:02:07;92978.63;;;5.82;53.34
59289;BME280;45056;47.602;9.886;2023-12-20T02:04:36;92985.88;;;5.85;53.27
59289;BME280;45056;47.602;9.886;2023-12-20T02:07:11;92990.03;;;5.89;53.32
59289;BME280;45056;47.602;9.886;2023-12-20T02:10:06;92986.91;;;5.95;53.74
59289;BME280;45056;47.602;9.886;2023-12-20T02:12:35;92988.00;;;5.97;54.09
59289;BME280;45056;47.602;9.886;2023-12-20T02:15:03;92994.91;;;6.02;54.26
59289;BME280;45056;47.602;9.886;2023-12-20T02:17:32;92982.09;;;6.06;54.54
59289;BME280;45056;47.602;9.886;2023-12-20T02:20:01;92983.94;;;6.13;54.87
59289;BME280;45056;47.602;9.886;2023-12-20T02:22:31;92982.69;;;6.17;55.30
59289;BME280;45056;47.602;9.886;2023-12-20T02:24:59;92980.69;;;6.21;55.18
59289;BME280;45056;47.602;9.886;2023-12-20T02:27:28;92979.88;;;6.25;54.87
59289;BME280;45056;47.602;9.886;2023-12-20T02:29:56;92984.13;;;6.26;55.05
59289;BME280;45056;47.602;9.886;2023-12-20T02:32:25;92962.84;;;6.28;55.07
59289;BME280;45056;47.602;9.886;2023-12-20T02:34:54;92965.47;;;6.31;55.03
59289;BME280;45056;47.602;9.886;2023-12-20T02:37:23;92970.03;;;6.34;54.79
59289;BME280;45056;47.602;9.886;2023-12-20T02:39:52;92970.00;;;6.38;54.98
59289;BME280;45056;47.602;9.886;2023-12-20T02:42:20;92962.56;;;6.42;54.83
59289;BME280;45056;47.602;9.886;2023-12-20T02:44:48;92968.69;;;6.46;54.80
59289;BME280;45056;47.602;9.886;2023-12-20T02:47:16;92962.44;;;6.49;54.85
59289;BME280;45056;47.602;9.886;2023-12-20T02:49:44;92955.03;;;6.54;54.73
59289;BME280;45056;47.602;9.886;2023-12-20T02:52:12;92960.38;;;6.57;54.90
59289;BME280;45056;47.602;9.886;2023-12-20T02:54:40;92958.00;;;6.59;55.14
59289;BME280;45056;47.602;9.886;2023-12-20T02:57:10;92952.94;;;6.61;54.96
59289;BME280;45056;47.602;9.886;2023-12-20T02:59:38;92958.31;;;6.65;54.92
59289;BME280;45056;47.602;9.886;2023-12-20T03:02:06;92951.72;;;6.66;54.96
59289;BME280;45056;47.602;9.886;2023-12-20T03:04:34;92950.88;;;6.69;54.93
59289;BME280;45056;47.602;9.886;2023-12-20T03:07:02;92951.22;;;6.71;55.13
59289;BME280;45056;47.602;9.886;2023-12-20T03:09:30;92946.94;;;6.74;55.09
59289;BME280;45056;47.602;9.886;2023-12-20T03:11:58;92941.09;;;6.75;55.11
59289;BME280;45056;47.602;9.886;2023-12-20T03:14:28;92938.34;;;6.79;55.24
59289;BME280;45056;47.602;9.886;2023-12-20T03:16:56;92944.09;;;6.81;55.55
59289;BME280;45056;47.602;9.886;2023-12-20T03:19:24;92944.78;;;6.85;55.51
59289;BME280;45056;47.602;9.886;2023-12-20T03:21:52;92937.00;;;6.87;55.54
59289;BME280;45056;47.602;9.886;2023-12-20T03:24:20;92936.59;;;6.89;55.37
59289;BME280;45056;47.602;9.886;2023-12-20T03:26:48;92940.84;;;6.90;55.29
59289;BME280;45056;47.602;9.886;2023-12-20T03:29:16;92951.22;;;6.91;55.07
59289;BME280;45056;47.602;9.886;2023-12-20T03:31:45;92947.31;;;6.92;55.18
59289;BME280;45056;47.602;9.886;2023-12-20T03:34:13;92949.28;;;6.92;55.33
59289;BME280;45056;47.602;9.886;2023-12-20T03:36:42;92955.88;;;6.91;55.46
59289;BME280;45056;47.602;9.886;2023-12-20T03:39:10;92965.56;;;6.88;55.61
59289;BME280;45056;47.602;9.886;2023-12-20T03:41:38;92968.78;;;6.83;56.08
59289;BME280;45056;47.602;9.886;2023-12-20T03:44:06;92971.19;;;6.77;57.10
59289;BME280;45056;47.602;9.886;2023-12-20T03:46:34;92974.03;;;6.70;57.65
59289;BME280;45056;47.602;9.886;2023-12-20T03:49:03;92984.22;;;6.62;58.42
59289;BME280;45056;47.602;9.886;2023-12-20T03:51:32;92978.16;;;6.55;58.73
59289;BME280;45056;47.602;9.886;2023-12-20T03:54:00;92975.94;;;6.49;59.10
59289;BME280;45056;47.602;9.886;2023-12-20T03:56:28;92974.09;;;6.46;59.43
59289;BME280;45056;47.602;9.886;2023-12-20T03:58:56;92984.53;;;6.44;59.62
59289;BME280;45056;47.602;9.886;2023-12-20T04:01:24;92984.25;;;6.39;59.87
59289;BME280;45056;47.602;9.886;2023-12-20T04:03:52;92982.72;;;6.38;60.03
59289;BME280;45056;47.602;9.886;2023-12-20T04:06:22;92981.19;;;6.37;60.18
59289;BME280;45056;47.602;9.886;2023-12-20T04:08:50;92978.91;;;6.35;60.26
59289;BME280;45056;47.602;9.886;2023-12-20T04:11:18;92967.34;;;6.34;60.49
59289;BME280;45056;47.602;9.886;2023-12-20T04:13:46;92967.75;;;6.33;60.31
59289;BME280;45056;47.602;9.886;2023-12-20T04:16:14;92970.47;;;6.33;60.21
59289;BME280;45056;47.602;9.886;2023-12-20T04:18:42;92960.84;;;6.32;59.96
59289;BME280;45056;47.602;9.886;2023-12-20T04:21:10;92966.25;;;6.32;59.65
59289;BME280;45056;47.602;9.886;2023-12-20T04:23:40;92960.84;;;6.32;59.74
59289;BME280;45056;47.602;9.886;2023-12-20T04:26:08;92967.00;;;6.32;59.82
59289;BME280;45056;47.602;9.886;2023-12-20T04:28:36;92973.56;;;6.31;60.05
59289;BME280;45056;47.602;9.886;2023-12-20T04:31:04;92977.88;;;6.29;60.31
59289;BME280;45056;47.602;9.886;2023-12-20T04:33:32;92983.28;;;6.29;60.38
59289;BME280;45056;47.602;9.886;2023-12-20T04:36:00;92983.28;;;6.29;60.81
59289;BME280;45056;47.602;9.886;2023-12-20T04:38:28;92975.19;;;6.29;60.96
59289;BME280;45056;47.602;9.886;2023-12-20T04:40:57;92973.66;;;6.28;60.78
59289;BME280;45056;47.602;9.886;2023-12-20T04:43:25;92977.09;;;6.28;60.88
59289;BME280;45056;47.602;9.886;2023-12-20T04:45:53;92985.97;;;6.29;60.96
59289;BME280;45056;47.602;9.886;2023-12-20T04:48:21;92989.44;;;6.29;61.26
59289;BME280;45056;47.602;9.886;2023-12-20T04:50:49;92990.22;;;6.30;61.31
59289;BME280;45056;47.602;9.886;2023-12-20T04:53:17;92995.63;;;6.30;61.48
59289;BME280;45056;47.602;9.886;2023-12-20T04:55:45;93000.25;;;6.29;61.48
59289;BME280;45056;47.602;9.886;2023-12-20T04:58:15;93008.78;;;6.28;61.30
59289;BME280;45056;47.602;9.886;2023-12-20T05:00:43;93013.06;;;6.25;61.32
59289;BME280;45056;47.602;9.886;2023-12-20T05:03:11;93013.47;;;6.24;61.16
59289;BME280;45056;47.602;9.886;2023-12-20T05:05:39;93016.97;;;6.20;61.63
59289;BME280;45056;47.602;9.886;2023-12-20T05:08:07;93018.97;;;6.16;61.89
59289;BME280;45056;47.602;9.886;2023-12-20T05:10:35;93024.84;;;6.11;62.18
59289;BME280;45056;47.602;9.886;2023-12-20T05:13:03;93030.38;;;6.04;62.63
59289;BME280;45056;47.602;9.886;2023-12-20T05:15:33;93042.03;;;5.97;62.67
59289;BME280;45056;47.602;9.886;2023-12-20T05:18:01;93034.03;;;5.90;63.16
59289;BME280;45056;47.602;9.886;2023-12-20T05:20:29;93049.56;;;5.82;63.49
59289;BME280;45056;47.602;9.886;2023-12-20T05:22:57;93052.78;;;5.73;63.92
59289;BME280;45056;47.602;9.886;2023-12-20T05:25:25;93061.41;;;5.65;63.88
59289;BME280;45056;47.602;9.886;2023-12-20T05:27:54;93063.06;;;5.55;64.28
59289;BME280;45056;47.602;9.886;2023-12-20T05:30:22;93064.69;;;5.48;64.59
59289;BME280;45056;47.602;9.886;2023-12-20T05:32:52;93068.59;;;5.44;65.05
59289;BME280;45056;47.602;9.886;2023-12-20T05:35:20;93072.91;;;5.38;65.46
59289;BME280;45056;47.602;9.886;2023-12-20T05:37:48;93084.09;;;5.36;65.51
59289;BME280;45056;47.602;9.886;2023-12-20T05:40:16;93081.47;;;5.32;65.84
59289;BME280;45056;47.602;9.886;2023-12-20T05:42:44;93085.75;;;5.26;66.05
59289;BME280;45056;47.602;9.886;2023-12-20T05:45:14;93079.63;;;5.22;66.26
59289;BME280;45056;47.602;9.886;2023-12-20T05:47:42;93088.53;;;5.19;66.71
59289;BME280;45056;47.602;9.886;2023-12-20T05:50:12;93082.44;;;5.15;66.77
59289;BME280;45056;47.602;9.886;2023-12-20T05:52:40;93085.97;;;5.08;67.09
59289;BME280;45056;47.602;9.886;2023-12-20T05:55:08;93098.34;;;5.05;67.50
59289;BME280;45056;47.602;9.886;2023-12-20T05:57:36;93099.09;;;5.06;67.31
59289;BME280;45056;47.602;9.886;2023-12-20T06:00:05;93102.94;;;5.05;67.73
59289;BME280;45056;47.602;9.886;2023-12-20T06:02:34;93087.53;;;5.05;67.89
59289;BME280;45056;47.602;9.886;2023-12-20T06:05:04;93109.16;;;5.02;67.94
59289;BME280;45056;47.602;9.886;2023-12-20T06:07:34;93106.88;;;5.00;67.89
59289;BME280;45056;47.602;9.886;2023-12-20T06:10:02;93106.09;;;5.00;68.18
59289;BME280;45056;47.602;9.886;2023-12-20T06:12:32;93107.66;;;4.97;68.06
59289;BME280;45056;47.602;9.886;2023-12-20T06:15:02;93100.34;;;4.94;68.21
59289;BME280;45056;47.602;9.886;2023-12-20T06:17:32;93107.69;;;4.94;68.48
59289;BME280;45056;47.602;9.886;2023-12-20T06:20:01;93111.56;;;4.93;68.63
59289;BME280;45056;47.602;9.886;2023-12-20T06:22:36;93102.31;;;4.94;68.72
59289;BME280;45056;47.602;9.886;2023-12-20T06:25:04;93115.78;;;4.94;68.59
59289;BME280;45056;47.602;9.886;2023-12-20T06:27:33;93112.31;;;4.93;68.59
59289;BME280;45056;47.602;9.886;2023-12-20T06:30:01;93125.44;;;4.91;68.54
59289;BME280;45056;47.602;9.886;2023-12-20T06:32:29;93112.38;;;4.89;68.77
59289;BME280;45056;47.602;9.886;2023-12-20T06:34:57;93114.69;;;4.87;68.69
59289;BME280;45056;47.602;9.886;2023-12-20T06:37:25;93118.91;;;4.88;69.08
59289;BME280;45056;47.602;9.886;2023-12-20T06:39:55;93123.91;;;4.90;68.97
59289;BME280;45056;47.602;9.886;2023-12-20T06:42:23;93121.56;;;4.92;68.93
59289;BME280;45056;47.602;9.886;2023-12-20T06:44:51;93113.84;;;4.94;68.87
59289;BME280;45056;47.602;9.886;2023-12-20T06:47:19;93126.94;;;4.96;68.97
59289;BME280;45056;47.602;9.886;2023-12-20T06:49:47;93116.91;;;4.96;68.85
59289;BME280;45056;47.602;9.886;2023-12-20T06:52:15;93138.47;;;4.96;68.90
59289;BME280;45056;47.602;9.886;2023-12-20T06:54:44;93127.69;;;4.96;68.71
59289;BME280;45056;47.602;9.886;2023-12-20T06:57:13;93131.97;;;4.94;68.82
59289;BME280;45056;47.602;9.886;2023-12-20T06:59:41;93140.44;;;4.92;68.87
59289;BME280;45056;47.602;9.886;2023-12-20T07:02:10;93138.91;;;4.91;68.99
59289;BME280;45056;47.602;9.886;2023-12-20T07:04:39;93136.22;;;4.91;69.04
59289;BME280;45056;47.602;9.886;2023-12-20T07:07:07;93137.75;;;4.92;69.28
59289;BME280;45056;47.602;9.886;2023-12-20T07:09:35;93130.06;;;4.90;69.27
59289;BME280;45056;47.602;9.886;2023-12-20T07:12:05;93127.75;;;4.93;69.39
59289;BME280;45056;47.602;9.886;2023-12-20T07:14:34;93139.28;;;4.93;69.58
59289;BME280;45056;47.602;9.886;2023-12-20T07:17:03;93145.81;;;4.96;69.39
59289;BME280;45056;47.602;9.886;2023-12-20T07:19:31;93141.94;;;5.00;69.62
59289;BME280;45056;47.602;9.886;2023-12-20T07:21:59;93142.22;;;5.06;69.58
59289;BME280;45056;47.602;9.886;2023-12-20T07:24:30;93150.66;;;5.12;69.41
59289;BME280;45056;47.602;9.886;2023-12-20T07:26:59;93141.75;;;5.15;69.05
59289;BME280;45056;47.602;9.886;2023-12-20T07:29:28;93139.84;;;5.15;68.62
59289;BME280;45056;47.602;9.886;2023-12-20T07:31:57;93142.13;;;5.17;68.62
59289;BME280;45056;47.602;9.886;2023-12-20T07:34:25;93142.50;;;5.19;68.67
59289;BME280;45056;47.602;9.886;2023-12-20T07:36:53;93145.19;;;5.19;68.54
59289;BME280;45056;47.602;9.886;2023-12-20T07:39:21;93150.59;;;5.19;68.55
59289;BME280;45056;47.602;9.886;2023-12-20T07:41:49;93144.03;;;5.20;68.72
59289;BME280;45056;47.602;9.886;2023-12-20T07:44:17;93154.81;;;5.20;68.56
59289;BME280;45056;47.602;9.886;2023-12-20T07:46:45;93152.53;;;5.18;68.63
59289;BME280;45056;47.602;9.886;2023-12-20T07:49:16;93153.28;;;5.19;68.47
59289;BME280;45056;47.602;9.886;2023-12-20T07:51:44;93139.03;;;5.18;68.75
59289;BME280;45056;47.602;9.886;2023-12-20T07:54:12;93149.03;;;5.22;68.75
59289;BME280;45056;47.602;9.886;2023-12-20T07:56:40;93144.38;;;5.22;68.83
59289;BME280;45056;47.602;9.886;2023-12-20T07:59:08;93151.66;;;5.25;69.10
59289;BME280;45056;47.602;9.886;2023-12-20T08:01:36;93150.91;;;5.25;68.94
59289;BME280;45056;47.602;9.886;2023-12-20T08:04:04;93142.81;;;5.25;69.00
59289;BME280;45056;47.602;9.886;2023-12-20T08:06:34;93155.91;;;5.26;68.97
59289;BME280;45056;47.602;9.886;2023-12-20T08:09:02;93157.84;;;5.26;69.05
59289;BME280;45056;47.602;9.886;2023-12-20T08:11:30;93169.38;;;5.26;69.25
59289;BME280;45056;47.602;9.886;2023-12-20T08:13:58;93162.81;;;5.27;69.28
59289;BME280;45056;47.602;9.886;2023-12-20T08:16:27;93163.19;;;5.29;69.23
59289;BME280;45056;47.602;9.886;2023-12-20T08:18:55;93168.19;;;5.31;69.09
59289;BME280;45056;47.602;9.886;2023-12-20T08:21:23;93165.50;;;5.31;69.32
59289;BME280;45056;47.602;9.886;2023-12-20T08:23:52;93169.34;;;5.33;69.45
59289;BME280;45056;47.602;9.886;2023-12-20T08:26:21;93165.47;;;5.34;69.52
59289;BME280;45056;47.602;9.886;2023-12-20T08:28:50;93168.91;;;5.35;69.48
59289;BME280;45056;47.602;9.886;2023-12-20T08:31:19;93156.59;;;5.34;69.65
59289;BME280;45056;47.602;9.886;2023-12-20T08:33:48;93156.59;;;5.34;69.68
59289;BME280;45056;47.602;9.886;2023-12-20T08:36:16;93159.66;;;5.36;69.66
59289;BME280;45056;47.602;9.886;2023-12-20T08:38:45;93157.72;;;5.37;69.71
59289;BME280;45056;47.602;9.886;2023-12-20T08:41:15;93158.09;;;5.39;69.67
59289;BME280;45056;47.602;9.886;2023-12-20T08:43:44;93158.84;;;5.39;69.63
59289;BME280;45056;47.602;9.886;2023-12-20T08:46:14;93155.41;;;5.39;69.71
59289;BME280;45056;47.602;9.886;2023-12-20T08:48:42;93160.00;;;5.38;69.96
59289;BME280;45056;47.602;9.886;2023-12-20T08:51:10;93156.94;;;5.40;70.23
59289;BME280;45056;47.602;9.886;2023-12-20T08:53:38;93162.63;;;5.45;70.11
59289;BME280;45056;47.602;9.886;2023-12-20T08:56:06;93156.44;;;5.48;70.01
59289;BME280;45056;47.602;9.886;2023-12-20T08:58:36;93157.97;;;5.49;70.09
59289;BME280;45056;47.602;9.886;2023-12-20T09:01:04;93151.00;;;5.52;70.14
59289;BME280;45056;47.602;9.886;2023-12-20T09:03:32;93147.91;;;5.54;70.33
59289;BME280;45056;47.602;9.886;2023-12-20T09:06:00;93155.59;;;5.55;70.48
59289;BME280;45056;47.602;9.886;2023-12-20T09:08:28;93152.13;;;5.55;70.43
59289;BME280;45056;47.602;9.886;2023-12-20T09:10:56;93149.00;;;5.56;70.36
59289;BME280;45056;47.602;9.886;2023-12-20T09:13:24;93146.66;;;5.58;70.47
59289;BME280;45056;47.602;9.886;2023-12-20T09:15:56;93142.81;;;5.59;70.29
59289;BME280;45056;47.602;9.886;2023-12-20T09:18:24;93150.16;;;5.59;70.35
59289;BME280;45056;47.602;9.886;2023-12-20T09:20:52;93148.56;;;5.61;70.39
59289;BME280;45056;47.602;9.886;2023-12-20T09:23:20;93153.56;;;5.63;70.50
59289;BME280;45056;47.602;9.886;2023-12-20T09:25:48;93147.00;;;5.64;70.63
59289;BME280;45056;47.602;9.886;2023-12-20T09:28:16;93145.44;;;5.67;70.67
59289;BME280;45056;47.602;9.886;2023-12-20T09:30:44;93145.44;;;5.67;70.68
59289;BME280;45056;47.602;9.886;2023-12-20T09:33:14;93151.19;;;5.69;70.63
59289;BME280;45056;47.602;9.886;2023-12-20T09:35:42;93152.38;;;5.68;70.61
59289;BME280;45056;47.602;9.886;2023-12-20T09:38:10;93144.66;;;5.66;70.61
59289;BME280;45056;47.602;9.886;2023-12-20T09:40:41;93151.19;;;5.69;70.84
59289;BME280;45056;47.602;9.886;2023-12-20T09:43:12;93143.84;;;5.69;70.72
59289;BME280;45056;47.602;9.886;2023-12-20T09:45:46;93146.53;;;5.69;70.87
59289;BME280;45056;47.602;9.886;2023-12-20T09:48:18;93143.84;;;5.69;70.71
59289;BME280;45056;47.602;9.886;2023-12-20T09:50:47;93150.78;;;5.70;70.81
59289;BME280;45056;47.602;9.886;2023-12-20T09:53:17;93148.03;;;5.74;70.95
59289;BME280;45056;47.602;9.886;2023-12-20T09:55:50;93155.38;;;5.73;70.77
59289;BME280;45056;47.602;9.886;2023-12-20T09:58:19;93141.47;;;5.75;70.82
59289;BME280;45056;47.602;9.886;2023-12-20T10:00:48;93145.69;;;5.76;70.72
59289;BME280;45056;47.602;9.886;2023-12-20T10:03:25;93139.94;;;5.74;70.66
59289;BME280;45056;47.602;9.886;2023-12-20T10:05:56;93133.41;;;5.71;70.81
59289;BME280;45056;47.602;9.886;2023-12-20T10:08:25;93141.50;;;5.71;70.92
59289;BME280;45056;47.602;9.886;2023-12-20T10:10:53;93129.19;;;5.70;70.86
59289;BME280;45056;47.602;9.886;2023-12-20T10:13:24;93133.06;;;5.69;70.67
59289;BME280;45056;47.602;9.886;2023-12-20T10:15:52;93128.06;;;5.68;70.86
59289;BME280;45056;47.602;9.886;2023-12-20T10:18:21;93120.00;;;5.64;70.91
59289;BME280;45056;47.602;9.886;2023-12-20T10:20:49;93121.94;;;5.63;71.01
59289;BME280;45056;47.602;9.886;2023-12-20T10:23:18;93121.53;;;5.65;71.12
59289;BME280;45056;47.602;9.886;2023-12-20T10:25:55;93121.91;;;5.67;71.04
59289;BME280;45056;47.602;9.886;2023-12-20T10:28:25;93119.19;;;5.67;71.26
59289;BME280;45056;47.602;9.886;2023-12-20T10:30:54;93115.75;;;5.67;71.22
59289;BME280;45056;47.602;9.886;2023-12-20T10:33:26;93115.38;;;5.65;71.39
59289;BME280;45056;47.602;9.886;2023-12-20T10:35:55;93113.84;;;5.63;71.57
59289;BME280;45056;47.602;9.886;2023-12-20T10:38:24;93109.22;;;5.64;71.44
59289;BME280;45056;47.602;9.886;2023-12-20T10:40:56;93109.63;;;5.62;71.87
59289;BME280;45056;47.602;9.886;2023-12-20T10:43:26;93103.44;;;5.62;71.97
59289;BME280;45056;47.602;9.886;2023-12-20T10:45:57;93094.56;;;5.61;72.15
59289;BME280;45056;47.602;9.886;2023-12-20T10:48:26;93096.13;;;5.62;72.14
59289;BME280;45056;47.602;9.886;2023-12-20T10:50:57;93089.56;;;5.63;72.26
59289;BME280;45056;47.602;9.886;2023-12-20T10:53:26;93093.78;;;5.65;72.53
59289;BME280;45056;47.602;9.886;2023-12-20T10:55:56;93095.31;;;5.66;72.43
59289;BME280;45056;47.602;9.886;2023-12-20T10:58:29;93087.22;;;5.66;72.58
59289;BME280;45056;47.602;9.886;2023-12-20T11:01:02;93083.69;;;5.69;72.48
59289;BME280;45056;47.602;9.886;2023-12-20T11:03:36;93082.19;;;5.68;72.46
59289;BME280;45056;47.602;9.886;2023-12-20T11:06:21;93086.78;;;5.67;72.60
59289;BME280;45056;47.602;9.886;2023-12-20T11:09:04;93079.13;;;5.66;72.49
59289;BME280;45056;47.602;9.886;2023-12-20T11:11:53;93078.34;;;5.65;72.43
59289;BME280;45056;47.602;9.886;2023-12-20T11:14:39;93087.56;;;5.68;72.58
59289;BME280;45056;47.602;9.886;2023-12-20T11:17:11;93080.22;;;5.68;72.68
59289;BME280;45056;47.602;9.886;2023-12-20T11:20:05;93083.34;;;5.67;72.53
59289;BME280;45056;47.602;9.886;2023-12-20T11:22:37;93080.69;;;5.63;72.39
59289;BME280;45056;47.602;9.886;2023-12-20T11:25:09;93081.47;;;5.63;72.76
59289;BME280;45056;47.602;9.886;2023-12-20T11:27:41;93075.28;;;5.63;72.74
59289;BME280;45056;47.602;9.886;2023-12-20T11:30:12;93072.97;;;5.61;72.60
59289;BME280;45056;47.602;9.886;2023-12-20T11:32:46;93070.69;;;5.60;72.67
59289;BME280;45056;47.602;9.886;2023-12-20T11:35:19;93075.31;;;5.59;72.89
59289;BME280;45056;47.602;9.886;2023-12-20T11:37:48;93074.97;;;5.57;73.01
59289;BME280;45056;47.602;9.886;2023-12-20T11:40:17;93074.59;;;5.55;72.99
59289;BME280;45056;47.602;9.886;2023-12-20T11:42:50;93076.94;;;5.53;72.99
59289;BME280;45056;47.602;9.886;2023-12-20T11:45:24;93074.25;;;5.53;73.18
59289;BME280;45056;47.602;9.886;2023-12-20T11:47:53;93071.97;;;5.52;73.28
59289;BME280;45056;47.602;9.886;2023-12-20T11:50:24;93069.66;;;5.50;73.24
59289;BME280;45056;47.602;9.886;2023-12-20T11:52:53;93071.63;;;5.49;73.43
59289;BME280;45056;47.602;9.886;2023-12-20T11:55:22;93060.81;;;5.49;73.50
59289;BME280;45056;47.602;9.886;2023-12-20T11:57:51;93060.81;;;5.49;73.42
59289;BME280;45056;47.602;9.886;2023-12-20T12:00:20;93057.69;;;5.51;73.47
59289;BME280;45056;47.602;9.886;2023-12-20T12:02:55;93071.50;;;5.57;74.24
59289;BME280;45056;47.602;9.886;2023-12-20T12:05:25;93053.66;;;5.67;74.41
59289;BME280;45056;47.602;9.886;2023-12-20T12:07:54;93058.16;;;5.73;73.82
59289;BME280;45056;47.602;9.886;2023-12-20T12:10:22;93062.00;;;5.76;73.30
59289;BME280;45056;47.602;9.886;2023-12-20T12:12:50;93060.13;;;5.73;72.61
59289;BME280;45056;47.602;9.886;2023-12-20T12:15:18;93067.50;;;5.69;72.70
59289;BME280;45056;47.602;9.886;2023-12-20T12:17:53;93069.88;;;5.63;72.58
59289;BME280;45056;47.602;9.886;2023-12-20T12:20:23;93068.41;;;5.58;72.73
59289;BME280;45056;47.602;9.886;2023-12-20T12:22:59;93066.50;;;5.55;72.91
59289;BME280;45056;47.602;9.886;2023-12-20T12:25:29;93066.94;;;5.54;72.74
59289;BME280;45056;47.602;9.886;2023-12-20T12:27:59;93067.69;;;5.54;72.90
59289;BME280;45056;47.602;9.886;2023-12-20T12:30:27;93070.38;;;5.54;72.73
59289;BME280;45056;47.602;9.886;2023-12-20T12:32:56;93063.81;;;5.55;72.71
59289;BME280;45056;47.602;9.886;2023-12-20T12:35:24;93071.91;;;5.55;72.68
59289;BME280;45056;47.602;9.886;2023-12-20T12:37:53;93070.75;;;5.56;72.72
59289;BME280;45056;47.602;9.886;2023-12-20T12:40:22;93072.25;;;5.57;72.74
59289;BME280;45056;47.602;9.886;2023-12-20T12:42:50;93072.25;;;5.57;72.79
59289;BME280;45056;47.602;9.886;2023-12-20T12:45:19;93068.00;;;5.60;72.84
59289;BME280;45056;47.602;9.886;2023-12-20T12:47:47;93061.78;;;5.63;72.80
59289;BME280;45056;47.602;9.886;2023-12-20T12:50:15;93057.16;;;5.63;72.43
59289;BME280;45056;47.602;9.886;2023-12-20T12:52:43;93057.16;;;5.63;72.26
59289;BME280;45056;47.602;9.886;2023-12-20T12:55:12;93054.03;;;5.65;72.21
59289;BME280;45056;47.602;9.886;2023-12-20T12:57:41;93042.84;;;5.67;72.12
59289;BME280;45056;47.602;9.886;2023-12-20T13:00:11;93044.38;;;5.68;71.85
59289;BME280;45056;47.602;9.886;2023-12-20T13:02:40;93049.34;;;5.69;71.91
59289;BME280;45056;47.602;9.886;2023-12-20T13:05:09;93045.13;;;5.68;71.86
59289;BME280;45056;47.602;9.886;2023-12-20T13:07:37;93049.34;;;5.69;71.88
59289;BME280;45056;47.602;9.886;2023-12-20T13:10:06;93052.06;;;5.69;71.85
59289;BME280;45056;47.602;9.886;2023-12-20T13:12:35;93055.94;;;5.68;71.74
59289;BME280;45056;47.602;9.886;2023-12-20T13:15:05;93050.94;;;5.67;71.69
59289;BME280;45056;47.602;9.886;2023-12-20T13:17:33;93052.88;;;5.66;71.61
59289;BME280;45056;47.602;9.886;2023-12-20T13:20:01;93043.66;;;5.63;71.68